Kezdőlap
METAR-TAF:

METAR-TAF

Repülőterek :

Hutchinson Municipal Airport (Butler Field)

Hutchinson, Minnesota, Amerikai Egyesült Államok

földrajzi szélesség: 44-52N, földrajzi hosszúság: 094-23W, magasság: 323 m

Jelenlegi meteorológiai megfigyelések

A jelentés 21 perccel ezelõtt készült, 09:16 UTC
Északkeleti szél 4 kt
Hőmérséklet 0°C
Páratartalom 100%
Légköri nyomás 1004 hPa
Látótávolság: 4.8 km
Borult 300 lábon
Párásság

METAR: KHCD 090916Z AUTO 04004KT 3SM BR OVC003 00/00 A2965 RMK AO2 T10031004

Idő: 03:37 (09:37 UTC)


TAF: hiányzik

Meteorológiai megfigyelések és előrejelzések több, mint 4000 repülőtéren (METAR és TAF jelentéseket).

A térképen piros és sárga pontok jelzik az elérhető meteorológiai állomásokat.

Mozgassa az egeret a pont fölött, hogy megjelenjen az állomás neve.

Azután kattintson az időjárási megfigyelések és előrejelzések megtekintéséhez.

A térkép megváltoztatása: kattintson a fekete keresztel jelölt zöld gombra ráközelítéshez, a vonallal jelölt zöld gombra távolításhoz, vagy a zöld nyilakra a szomszédos térképek eléréséhez.


METAR-TAF: